Time;durP1;ratioP1;P1;durP2;ratioP2;P2;SDS_P1;SDS_P2;PMS_P1;PMS_P2;Temp;Humidity;BMP_temperature;BMP_pressure;BME280_temperature;BME280_humidity;BME280_pressure;Samples;Min_cycle;Max_cycle;Signal;HPM_P1;HPM_P2
2022/03/26 00:01:22;;;;;;;82.43;56.75;;;;;;;;;;5051423;28;20048;-76
2022/03/26 00:03:49;;;;;;;81.22;56.78;;;;;;;;;;5052224;28;20045;-76
2022/03/26 00:06:15;;;;;;;85.57;60.42;;;;;;;;;;5054784;28;20049;-76
2022/03/26 00:08:42;;;;;;;65.40;47.03;;;;;;;;;;5054557;28;20053;-76
2022/03/26 00:11:08;;;;;;;66.22;47.60;;;;;;;;;;5054651;28;20060;-76
2022/03/26 00:13:35;;;;;;;62.83;45.45;;;;;;;;;;5054414;28;20057;-76
2022/03/26 00:16:01;;;;;;;60.63;43.45;;;;;;;;;;5054367;28;20045;-76
2022/03/26 00:18:28;;;;;;;61.55;42.30;;;;;;;;;;5054389;28;20464;-76
2022/03/26 00:20:55;;;;;;;59.60;40.53;;;;;;;;;;5053288;28;20088;-76
2022/03/26 00:23:21;;;;;;;54.58;39.90;;;;;;;;;;5053343;28;20111;-76
2022/03/26 00:25:47;;;;;;;52.08;37.78;;;;;;;;;;5054238;28;20107;-76
2022/03/26 00:28:14;;;;;;;51.50;37.83;;;;;;;;;;5054255;28;20087;-76
2022/03/26 00:30:40;;;;;;;57.08;41.15;;;;;;;;;;5054423;28;20057;-76
2022/03/26 00:33:07;;;;;;;53.78;37.85;;;;;;;;;;5052807;28;20146;-77
2022/03/26 00:35:33;;;;;;;51.47;36.85;;;;;;;;;;5054392;28;20459;-76
2022/03/26 00:38:00;;;;;;;56.25;38.67;;;;;;;;;;5054103;28;20091;-76
2022/03/26 00:40:26;;;;;;;53.60;38.13;;;;;;;;;;5054189;28;20040;-76
2022/03/26 00:42:53;;;;;;;54.30;39.05;;;;;;;;;;5052868;28;20102;-76
2022/03/26 00:45:19;;;;;;;57.42;39.03;;;;;;;;;;5052577;28;20049;-77
2022/03/26 00:47:46;;;;;;;58.53;39.38;;;;;;;;;;5054136;28;20044;-77
2022/03/26 00:50:12;;;;;;;56.72;38.42;;;;;;;;;;5052754;28;20045;-77
2022/03/26 00:52:39;;;;;;;53.63;39.08;;;;;;;;;;5053544;28;20496;-77
2022/03/26 00:55:05;;;;;;;55.38;38.92;;;;;;;;;;5053930;28;20103;-77
2022/03/26 00:57:32;;;;;;;55.75;37.63;;;;;;;;;;5053945;28;20049;-77
2022/03/26 00:59:58;;;;;;;55.95;40.28;;;;;;;;;;5052400;28;20543;-77
2022/03/26 01:02:25;;;;;;;56.28;37.83;;;;;;;;;;5053673;28;20057;-77
2022/03/26 01:04:52;;;;;;;54.72;37.45;;;;;;;;;;5053843;28;20053;-77
2022/03/26 01:07:18;;;;;;;60.35;38.75;;;;;;;;;;5052283;28;20463;-77
2022/03/26 01:09:45;;;;;;;55.97;36.50;;;;;;;;;;5053703;28;20065;-77
2022/03/26 01:12:13;;;;;;;52.90;37.35;;;;;;;;;;5053182;28;20040;-77
2022/03/26 01:14:39;;;;;;;54.22;36.22;;;;;;;;;;5053496;28;20044;-77
2022/03/26 01:17:07;;;;;;;51.60;36.13;;;;;;;;;;5052534;28;20052;-77
2022/03/26 01:19:34;;;;;;;54.33;35.17;;;;;;;;;;5053496;28;20049;-77
2022/03/26 01:22:00;;;;;;;51.97;35.55;;;;;;;;;;5051951;28;20162;-77
2022/03/26 01:24:27;;;;;;;55.53;35.92;;;;;;;;;;5053300;28;20099;-77
2022/03/26 01:26:53;;;;;;;54.70;36.05;;;;;;;;;;5053087;28;20590;-77
2022/03/26 01:29:20;;;;;;;56.35;36.42;;;;;;;;;;5052955;28;20460;-77
2022/03/26 01:31:46;;;;;;;60.92;37.40;;;;;;;;;;5044852;28;20103;-77
2022/03/26 01:34:13;;;;;;;58.97;41.20;;;;;;;;;;5053114;28;20066;-77
2022/03/26 01:36:39;;;;;;;60.70;40.33;;;;;;;;;;5053155;28;20049;-77
2022/03/26 01:39:06;;;;;;;54.75;37.58;;;;;;;;;;5051516;28;20048;-77
2022/03/26 01:41:33;;;;;;;53.67;37.70;;;;;;;;;;5052797;28;20079;-77
2022/03/26 01:44:00;;;;;;;58.70;37.17;;;;;;;;;;5051749;28;20578;-77
2022/03/26 01:46:26;;;;;;;60.13;41.10;;;;;;;;;;5052967;28;20286;-77
2022/03/26 01:48:53;;;;;;;61.30;39.42;;;;;;;;;;5052969;28;20087;-77
2022/03/26 01:51:19;;;;;;;55.50;37.38;;;;;;;;;;5051602;28;20512;-77
2022/03/26 01:53:47;;;;;;;60.45;38.60;;;;;;;;;;5052535;28;20098;-77
2022/03/26 01:56:15;;;;;;;56.08;36.60;;;;;;;;;;5052797;28;20440;-77
2022/03/26 01:58:42;;;;;;;51.35;35.95;;;;;;;;;;5053074;28;20041;-77
2022/03/26 02:01:08;;;;;;;51.43;35.53;;;;;;;;;;5052568;28;20045;-77
2022/03/26 02:03:35;;;;;;;48.92;34.65;;;;;;;;;;5052374;28;20585;-77
2022/03/26 02:06:02;;;;;;;53.67;34.50;;;;;;;;;;5051191;28;20060;-77
2022/03/26 02:08:29;;;;;;;53.40;35.03;;;;;;;;;;5052459;28;20053;-77
2022/03/26 02:10:56;;;;;;;48.92;32.88;;;;;;;;;;5052213;28;20111;-77
2022/03/26 02:13:22;;;;;;;47.60;33.13;;;;;;;;;;5052334;28;20053;-77
2022/03/26 02:15:49;;;;;;;49.97;30.42;;;;;;;;;;5051097;28;20390;-77
2022/03/26 02:18:15;;;;;;;46.13;31.10;;;;;;;;;;5052112;28;20559;-77
2022/03/26 02:20:42;;;;;;;47.70;30.55;;;;;;;;;;5052263;28;20091;-77
2022/03/26 02:23:08;;;;;;;43.85;29.00;;;;;;;;;;5052755;28;20098;-77
2022/03/26 02:25:34;;;;;;;48.28;30.48;;;;;;;;;;5052274;28;20455;-77
2022/03/26 02:28:01;;;;;;;49.05;31.63;;;;;;;;;;5051404;28;20455;-77
2022/03/26 02:30:30;;;;;;;48.03;32.55;;;;;;;;;;5051939;28;20045;-77
2022/03/26 02:32:56;;;;;;;50.25;31.30;;;;;;;;;;5051669;28;20106;-77
2022/03/26 02:35:23;;;;;;;55.47;32.20;;;;;;;;;;5050392;28;20098;-77
2022/03/26 02:37:49;;;;;;;44.03;30.67;;;;;;;;;;5046132;28;20049;-77
2022/03/26 02:40:18;;;;;;;45.63;31.42;;;;;;;;;;5051815;28;20102;-77
2022/03/26 02:42:44;;;;;;;45.50;31.38;;;;;;;;;;5051892;28;20053;-77
2022/03/26 02:45:11;;;;;;;45.78;29.90;;;;;;;;;;5050457;28;20098;-77
2022/03/26 02:47:37;;;;;;;43.63;30.13;;;;;;;;;;5051691;28;20053;-77
2022/03/26 02:50:04;;;;;;;44.83;29.33;;;;;;;;;;5051757;28;20048;-77
2022/03/26 02:52:31;;;;;;;45.25;30.65;;;;;;;;;;5051761;28;20057;-77
2022/03/26 02:54:57;;;;;;;44.15;30.00;;;;;;;;;;5051397;28;20099;-77
2022/03/26 02:57:25;;;;;;;48.17;30.90;;;;;;;;;;5050605;28;20041;-77
2022/03/26 02:59:52;;;;;;;;;;;;;;;;;;5052064;28;20045;-77
2022/03/26 03:02:18;;;;;;;42.17;28.90;;;;;;;;;;5051471;28;20426;-77
2022/03/26 03:04:45;;;;;;;45.72;29.13;;;;;;;;;;5051743;28;20132;-77
2022/03/26 03:07:11;;;;;;;46.30;30.20;;;;;;;;;;5051617;28;20049;-77
2022/03/26 03:09:38;;;;;;;45.65;29.85;;;;;;;;;;5051455;28;20045;-77
2022/03/26 03:12:04;;;;;;;45.80;27.77;;;;;;;;;;5050074;28;20053;-77
2022/03/26 03:14:31;;;;;;;44.97;27.63;;;;;;;;;;5051492;28;20057;-77
2022/03/26 03:16:57;;;;;;;42.58;28.23;;;;;;;;;;5051568;28;20413;-77
2022/03/26 03:19:24;;;;;;;42.65;27.17;;;;;;;;;;5051666;28;20124;-77
2022/03/26 03:21:50;;;;;;;43.33;28.45;;;;;;;;;;5050070;28;20095;-77
2022/03/26 03:24:17;;;;;;;42.85;27.60;;;;;;;;;;5050417;28;20045;-77
2022/03/26 03:26:43;;;;;;;45.70;27.30;;;;;;;;;;5049946;28;20049;-77
2022/03/26 03:29:10;;;;;;;39.08;26.05;;;;;;;;;;5051750;28;20045;-77
2022/03/26 03:31:37;;;;;;;40.90;26.48;;;;;;;;;;5051280;28;20049;-77
2022/03/26 03:34:03;;;;;;;42.58;26.85;;;;;;;;;;5050209;28;20081;-77
2022/03/26 03:36:30;;;;;;;41.10;27.77;;;;;;;;;;5051329;28;20044;-77
2022/03/26 03:38:56;;;;;;;47.13;28.05;;;;;;;;;;5051255;28;20084;-77
2022/03/26 03:41:23;;;;;;;42.90;27.67;;;;;;;;;;5055242;28;20686;-77
2022/03/26 03:43:49;;;;;;;43.33;28.02;;;;;;;;;;5055378;28;20543;-77
2022/03/26 03:46:15;;;;;;;41.35;26.65;;;;;;;;;;5054810;28;20053;-77
2022/03/26 03:48:42;;;;;;;43.28;26.98;;;;;;;;;;5055546;28;20056;-77
2022/03/26 03:51:08;;;;;;;40.05;27.05;;;;;;;;;;5055068;28;20053;-77
2022/03/26 03:53:35;;;;;;;42.80;26.83;;;;;;;;;;5053865;28;20041;-77
2022/03/26 03:56:01;;;;;;;41.97;26.83;;;;;;;;;;5053628;28;20049;-77
2022/03/26 03:58:28;;;;;;;44.25;27.50;;;;;;;;;;5054728;28;20045;-77
2022/03/26 04:00:59;;;;;;;42.65;26.73;;;;;;;;;;5054804;28;20132;-77
2022/03/26 04:03:26;;;;;;;38.63;25.20;;;;;;;;;;5054932;28;20049;-77
2022/03/26 04:05:52;;;;;;;41.75;26.10;;;;;;;;;;5054963;28;20056;-77
2022/03/26 04:08:20;;;;;;;40.88;26.75;;;;;;;;;;5053410;28;20118;-77
2022/03/26 04:10:46;;;;;;;45.13;28.30;;;;;;;;;;5055029;28;20061;-77
2022/03/26 04:13:13;;;;;;;41.88;27.33;;;;;;;;;;5054604;28;20049;-77
2022/03/26 04:15:39;;;;;;;40.45;26.10;;;;;;;;;;5053575;28;20040;-77
2022/03/26 04:18:06;;;;;;;43.30;26.63;;;;;;;;;;5055191;28;20053;-76
2022/03/26 04:20:34;;;;;;;45.42;27.63;;;;;;;;;;5054713;28;20049;-77
2022/03/26 04:23:00;;;;;;;41.35;28.02;;;;;;;;;;5053574;28;20531;-77
2022/03/26 04:25:27;;;;;;;43.55;26.83;;;;;;;;;;5054326;28;20111;-77
2022/03/26 04:27:53;;;;;;;43.53;27.52;;;;;;;;;;5054449;28;20045;-77
2022/03/26 04:30:20;;;;;;;40.80;25.58;;;;;;;;;;5054326;28;20106;-77
2022/03/26 04:32:47;;;;;;;40.38;26.20;;;;;;;;;;5052867;28;20065;-77
2022/03/26 04:35:13;;;;;;;41.92;25.38;;;;;;;;;;5053964;28;20538;-77
2022/03/26 04:37:41;;;;;;;41.80;25.00;;;;;;;;;;5054335;28;20045;-77
2022/03/26 04:40:11;;;;;;;39.03;25.48;;;;;;;;;;5053034;28;20049;-77
2022/03/26 04:42:39;;;;;;;35.45;23.15;;;;;;;;;;5053873;28;20111;-77
2022/03/26 04:45:07;;;;;;;40.83;23.73;;;;;;;;;;5054126;28;20202;-77
2022/03/26 04:47:34;;;;;;;37.20;22.80;;;;;;;;;;5053790;28;20049;-77
2022/03/26 04:50:00;;;;;;;35.42;22.85;;;;;;;;;;5053267;28;20045;-78
2022/03/26 04:52:27;;;;;;;36.58;23.02;;;;;;;;;;5053673;28;20441;-77
2022/03/26 04:54:53;;;;;;;33.65;22.33;;;;;;;;;;5053572;28;20053;-77
2022/03/26 04:57:19;;;;;;;39.47;24.10;;;;;;;;;;5053788;28;20091;-77
2022/03/26 04:59:46;;;;;;;35.78;23.15;;;;;;;;;;5053780;28;20195;-77
2022/03/26 05:02:13;;;;;;;35.80;23.05;;;;;;;;;;5053723;28;20045;-77
2022/03/26 05:04:40;;;;;;;37.25;23.55;;;;;;;;;;5052421;28;20576;-77
2022/03/26 05:09:51;;;;;;;39.75;23.30;;;;;;;;;;5053397;28;20057;-77
2022/03/26 05:12:18;;;;;;;39.25;23.48;;;;;;;;;;5053355;28;20045;-77
2022/03/26 05:14:45;;;;;;;38.67;21.98;;;;;;;;;;5053326;28;20045;-77
2022/03/26 05:17:12;;;;;;;34.33;22.10;;;;;;;;;;5053425;28;20049;-77
2022/03/26 05:19:38;;;;;;;38.20;23.02;;;;;;;;;;5053545;28;20044;-77
2022/03/26 05:22:05;;;;;;;40.72;24.08;;;;;;;;;;5053108;28;20114;-77
2022/03/26 05:24:33;;;;;;;43.80;23.75;;;;;;;;;;5053134;28;20572;-77
2022/03/26 05:26:59;;;;;;;37.13;22.60;;;;;;;;;;5053395;28;20098;-77
2022/03/26 05:29:26;;;;;;;39.00;23.33;;;;;;;;;;5053219;28;20053;-77
2022/03/26 05:31:53;;;;;;;39.58;24.00;;;;;;;;;;5051675;28;20065;-77
2022/03/26 05:34:19;;;;;;;39.75;23.17;;;;;;;;;;5052911;28;20505;-77
2022/03/26 05:36:46;;;;;;;38.25;23.30;;;;;;;;;;5051621;28;20049;-77
2022/03/26 05:39:12;;;;;;;39.97;24.25;;;;;;;;;;5051836;28;20049;-77
2022/03/26 05:41:42;;;;;;;36.33;22.83;;;;;;;;;;5053278;28;20048;-77
2022/03/26 05:44:09;;;;;;;39.95;23.60;;;;;;;;;;5051785;28;20049;-77
2022/03/26 05:46:35;;;;;;;38.13;23.88;;;;;;;;;;5052846;28;20049;-77
2022/03/26 05:49:02;;;;;;;38.58;24.08;;;;;;;;;;5052954;28;20091;-77
2022/03/26 05:51:29;;;;;;;42.72;24.35;;;;;;;;;;5052836;28;20044;-77
2022/03/26 05:53:55;;;;;;;40.58;23.23;;;;;;;;;;5052817;28;20049;-77
2022/03/26 05:56:22;;;;;;;39.72;23.83;;;;;;;;;;5052500;28;20497;-77
2022/03/26 05:58:49;;;;;;;40.65;23.77;;;;;;;;;;5052619;28;20107;-77
2022/03/26 06:01:16;;;;;;;43.00;25.90;;;;;;;;;;5052478;28;20075;-77
2022/03/26 06:03:43;;;;;;;43.60;24.45;;;;;;;;;;5052534;28;20057;-77
2022/03/26 06:06:10;;;;;;;44.10;24.38;;;;;;;;;;5052650;28;20052;-77
2022/03/26 06:08:36;;;;;;;45.30;25.88;;;;;;;;;;5052613;28;20056;-77
2022/03/26 06:11:03;;;;;;;40.58;24.38;;;;;;;;;;5052293;28;20079;-77
2022/03/26 06:13:29;;;;;;;46.72;25.15;;;;;;;;;;5052169;28;20107;-77
2022/03/26 06:15:55;;;;;;;43.78;24.63;;;;;;;;;;5051255;28;20041;-77
2022/03/26 06:18:22;;;;;;;41.92;24.25;;;;;;;;;;5052355;28;20041;-77
2022/03/26 06:20:49;;;;;;;40.78;24.00;;;;;;;;;;5052075;28;20052;-77
2022/03/26 06:23:15;;;;;;;46.15;25.88;;;;;;;;;;5052318;28;20053;-77
2022/03/26 06:25:41;;;;;;;45.20;24.48;;;;;;;;;;5052054;28;20102;-77
2022/03/26 06:28:08;;;;;;;43.53;24.05;;;;;;;;;;5052074;28;20049;-77
2022/03/26 06:30:34;;;;;;;44.00;25.58;;;;;;;;;;5051128;28;20122;-77
2022/03/26 06:33:01;;;;;;;47.30;24.92;;;;;;;;;;5051876;28;20098;-77
2022/03/26 06:35:27;;;;;;;42.38;25.15;;;;;;;;;;5050770;28;20049;-77
2022/03/26 06:37:54;;;;;;;47.65;26.20;;;;;;;;;;5052059;28;20052;-77
2022/03/26 06:40:20;;;;;;;46.25;26.77;;;;;;;;;;5051727;28;20546;-77
2022/03/26 06:42:47;;;;;;;45.10;25.08;;;;;;;;;;5051709;28;20555;-77
2022/03/26 06:45:15;;;;;;;41.97;24.33;;;;;;;;;;5050527;28;20052;-77
2022/03/26 06:47:43;;;;;;;43.42;25.05;;;;;;;;;;5051836;28;20102;-77
2022/03/26 06:50:09;;;;;;;46.95;25.17;;;;;;;;;;5051620;28;20102;-77
2022/03/26 06:52:36;;;;;;;44.05;25.65;;;;;;;;;;5051741;28;20041;-77
2022/03/26 06:55:05;;;;;;;41.85;24.50;;;;;;;;;;5051870;28;20145;-77
2022/03/26 06:57:32;;;;;;;46.08;26.50;;;;;;;;;;5051907;28;20107;-77
2022/03/26 06:59:58;;;;;;;46.85;26.90;;;;;;;;;;5051453;28;20040;-77
2022/03/26 07:02:25;;;;;;;47.67;26.95;;;;;;;;;;5051524;28;20044;-78
2022/03/26 07:04:51;;;;;;;41.42;26.58;;;;;;;;;;5051868;28;20053;-78
2022/03/26 07:07:18;;;;;;;40.95;25.00;;;;;;;;;;5051629;28;20049;-77
2022/03/26 07:09:44;;;;;;;42.67;26.13;;;;;;;;;;5051372;28;20061;-77
2022/03/26 07:12:11;;;;;;;44.15;24.75;;;;;;;;;;5051808;28;20050;-78
2022/03/26 07:14:37;;;;;;;45.65;26.00;;;;;;;;;;5052516;28;20057;-77
2022/03/26 07:17:04;;;;;;;44.40;26.23;;;;;;;;;;5055261;28;20049;-77
2022/03/26 07:19:30;;;;;;;43.92;26.20;;;;;;;;;;5055556;28;20088;-77
2022/03/26 07:21:57;;;;;;;47.75;27.13;;;;;;;;;;5055383;28;20095;-77
2022/03/26 07:24:23;;;;;;;43.80;25.52;;;;;;;;;;5055731;28;20053;-77
2022/03/26 07:26:50;;;;;;;46.20;26.58;;;;;;;;;;5055394;28;20049;-77
2022/03/26 07:29:16;;;;;;;43.00;26.90;;;;;;;;;;5055374;28;20041;-77
2022/03/26 07:31:45;;;;;;;49.03;26.65;;;;;;;;;;5055229;28;20104;-77
2022/03/26 07:34:15;;;;;;;44.45;26.75;;;;;;;;;;5049505;28;20049;-77
2022/03/26 07:36:42;;;;;;;47.35;27.40;;;;;;;;;;5033978;28;20095;-75
2022/03/26 07:39:08;;;;;;;51.03;30.13;;;;;;;;;;5035270;28;20050;-75
2022/03/26 07:41:35;;;;;;;48.75;28.67;;;;;;;;;;5044490;28;20045;-75
2022/03/26 07:44:01;;;;;;;51.35;28.65;;;;;;;;;;5034913;28;20053;-76
2022/03/26 07:46:28;;;;;;;49.30;29.77;;;;;;;;;;5054166;28;20052;-75
2022/03/26 07:48:54;;;;;;;51.20;29.50;;;;;;;;;;5045597;28;20045;-75
2022/03/26 07:51:21;;;;;;;45.53;28.48;;;;;;;;;;5034308;28;20107;-76
2022/03/26 07:53:47;;;;;;;45.97;27.73;;;;;;;;;;5034646;28;20720;-77
2022/03/26 07:56:14;;;;;;;49.13;28.83;;;;;;;;;;5034511;28;20041;-79
2022/03/26 07:58:40;;;;;;;48.95;29.05;;;;;;;;;;5046393;28;20049;-76
2022/03/26 08:01:07;;;;;;;47.55;28.40;;;;;;;;;;5054433;28;20049;-77
2022/03/26 08:03:33;;;;;;;49.00;29.02;;;;;;;;;;5054482;28;20459;-76
2022/03/26 08:06:00;;;;;;;43.53;27.40;;;;;;;;;;5054521;28;20049;-73
2022/03/26 08:08:32;;;;;;;42.60;28.73;;;;;;;;;;5054472;28;20049;-76
2022/03/26 08:10:59;;;;;;;44.55;28.98;;;;;;;;;;5041284;28;20107;-85
2022/03/26 08:13:26;;;;;;;47.67;29.42;;;;;;;;;;5034316;28;20049;-76
2022/03/26 08:15:52;;;;;;;42.20;27.88;;;;;;;;;;5039073;28;20493;-75
2022/03/26 08:18:19;;;;;;;45.10;29.33;;;;;;;;;;5034393;28;20048;-75
2022/03/26 08:20:45;;;;;;;43.50;27.67;;;;;;;;;;5034193;28;20088;-76
2022/03/26 08:23:12;;;;;;;40.22;26.98;;;;;;;;;;5044619;28;20439;-75
2022/03/26 08:28:23;;;;;;;40.35;26.45;;;;;;;;;;5054177;28;20447;-76
2022/03/26 08:30:50;;;;;;;36.55;24.33;;;;;;;;;;5054028;28;20546;-76
2022/03/26 08:33:17;;;;;;;35.03;24.90;;;;;;;;;;5054325;28;20061;-76
2022/03/26 08:35:43;;;;;;;35.33;24.13;;;;;;;;;;5047416;28;20065;-76
2022/03/26 08:38:10;;;;;;;31.65;23.27;;;;;;;;;;5054227;28;20041;-77
2022/03/26 08:40:37;;;;;;;33.83;22.83;;;;;;;;;;5053880;28;20095;-77
2022/03/26 08:43:06;;;;;;;31.75;22.48;;;;;;;;;;5054313;28;20115;-78
2022/03/26 08:45:32;;;;;;;35.20;22.83;;;;;;;;;;5049631;28;20505;-75
2022/03/26 08:47:59;;;;;;;31.77;23.70;;;;;;;;;;5039431;28;20059;-79
2022/03/26 08:50:25;;;;;;;34.40;21.93;;;;;;;;;;5033689;28;20049;-77
2022/03/26 08:52:52;;;;;;;32.63;21.98;;;;;;;;;;5037086;28;20075;-76
2022/03/26 08:55:19;;;;;;;28.30;21.52;;;;;;;;;;5049201;28;20053;-74
2022/03/26 08:57:45;;;;;;;30.98;21.55;;;;;;;;;;5032033;28;20045;-74
2022/03/26 09:00:13;;;;;;;28.27;20.30;;;;;;;;;;5033626;28;20382;-74
2022/03/26 09:02:40;;;;;;;32.83;21.02;;;;;;;;;;5032513;28;20054;-77
2022/03/26 09:05:06;;;;;;;;;;;;;;;;;;5033597;28;20107;-72
2022/03/26 09:07:33;;;;;;;34.65;21.45;;;;;;;;;;5032757;28;19928;-74
2022/03/26 09:10:00;;;;;;;30.02;21.73;;;;;;;;;;5033051;28;20053;-73
2022/03/26 09:12:26;;;;;;;33.43;22.50;;;;;;;;;;5034547;28;20079;-73
2022/03/26 09:14:53;;;;;;;33.08;20.95;;;;;;;;;;5033226;28;20300;-73
2022/03/26 09:17:19;;;;;;;29.93;21.03;;;;;;;;;;5033497;28;20590;-73
2022/03/26 09:19:46;;;;;;;28.30;19.45;;;;;;;;;;5035673;28;20049;-72
2022/03/26 09:22:12;;;;;;;28.03;18.27;;;;;;;;;;5045459;28;20072;-72
2022/03/26 09:24:39;;;;;;;27.73;18.65;;;;;;;;;;5033100;28;20049;-72
2022/03/26 09:27:05;;;;;;;25.92;18.45;;;;;;;;;;5044942;28;20049;-75
2022/03/26 09:29:32;;;;;;;28.10;17.92;;;;;;;;;;5051786;28;20061;-75
2022/03/26 09:31:58;;;;;;;24.42;16.85;;;;;;;;;;5053119;28;20061;-72
2022/03/26 09:34:25;;;;;;;27.58;18.23;;;;;;;;;;5053265;28;20053;-72
2022/03/26 09:36:53;;;;;;;23.48;16.83;;;;;;;;;;5035152;28;20347;-74
2022/03/26 09:39:20;;;;;;;21.58;16.00;;;;;;;;;;5034384;28;20052;-76
2022/03/26 09:41:49;;;;;;;;;;;;;;;;;;5037215;28;20053;-71
2022/03/26 09:44:16;;;;;;;21.33;15.88;;;;;;;;;;5033666;28;19921;-72
2022/03/26 09:46:42;;;;;;;22.15;16.50;;;;;;;;;;5041450;28;20091;-72
2022/03/26 09:49:12;;;;;;;24.50;16.92;;;;;;;;;;5049986;28;20115;-72
2022/03/26 09:51:38;;;;;;;20.95;15.15;;;;;;;;;;5052809;28;20049;-72
2022/03/26 09:54:05;;;;;;;23.83;15.60;;;;;;;;;;5052679;28;20052;-73
2022/03/26 09:56:32;;;;;;;18.15;14.13;;;;;;;;;;5037079;28;20046;-68
2022/03/26 09:58:59;;;;;;;21.70;15.30;;;;;;;;;;5032484;28;20085;-67
2022/03/26 10:01:29;;;;;;;21.15;15.52;;;;;;;;;;5031896;28;20441;-69
2022/03/26 10:04:06;;;;;;;21.80;14.73;;;;;;;;;;5031112;28;20059;-69
2022/03/26 10:06:32;;;;;;;19.48;14.40;;;;;;;;;;5032076;28;20056;-69
2022/03/26 10:08:59;;;;;;;19.38;14.02;;;;;;;;;;5024549;28;20058;-68
2022/03/26 10:11:30;;;;;;;20.80;14.48;;;;;;;;;;5025240;28;20104;-70
2022/03/26 10:13:57;;;;;;;20.63;14.45;;;;;;;;;;5021298;28;20555;-69
2022/03/26 10:16:24;;;;;;;18.80;13.88;;;;;;;;;;5028610;28;20050;-68
2022/03/26 10:18:51;;;;;;;17.02;13.40;;;;;;;;;;5032225;28;20495;-69
2022/03/26 10:21:20;;;;;;;20.05;13.82;;;;;;;;;;5031926;28;20049;-68
2022/03/26 10:23:52;;;;;;;20.15;14.18;;;;;;;;;;5031807;28;20103;-67
2022/03/26 10:26:21;;;;;;;19.30;13.95;;;;;;;;;;5031871;28;20103;-68
2022/03/26 10:28:51;;;;;;;21.35;14.55;;;;;;;;;;5031900;28;20045;-68
2022/03/26 10:34:20;;;;;;;21.77;16.20;;;;;;;;;;5038047;28;20048;-67
2022/03/26 10:36:56;;;;;;;21.92;16.13;;;;;;;;;;5025930;28;20069;-69
2022/03/26 10:39:24;;;;;;;22.02;15.45;;;;;;;;;;5031542;28;20838;-69
2022/03/26 10:41:54;;;;;;;19.63;15.48;;;;;;;;;;5031615;28;20045;-69
2022/03/26 10:44:25;;;;;;;21.23;15.48;;;;;;;;;;5031363;28;20057;-70
2022/03/26 10:46:52;;;;;;;21.02;16.67;;;;;;;;;;5031096;28;20123;-69
2022/03/26 10:49:26;;;;;;;23.27;16.98;;;;;;;;;;5028267;28;20057;-67
2022/03/26 10:51:54;;;;;;;21.88;17.17;;;;;;;;;;5031470;28;20049;-69
2022/03/26 10:54:27;;;;;;;23.90;16.77;;;;;;;;;;5028195;28;20042;-68
2022/03/26 10:56:53;;;;;;;21.55;16.58;;;;;;;;;;5030481;28;20053;-67
2022/03/26 10:59:21;;;;;;;24.48;16.67;;;;;;;;;;5039658;28;20048;-67
2022/03/26 11:01:47;;;;;;;22.95;16.80;;;;;;;;;;5051115;28;20052;-66
2022/03/26 11:04:14;;;;;;;20.63;17.00;;;;;;;;;;5051232;28;20040;-67
2022/03/26 11:06:40;;;;;;;28.52;19.90;;;;;;;;;;5051174;28;20045;-66
2022/03/26 11:09:07;;;;;;;23.13;18.98;;;;;;;;;;5050984;28;20103;-67
2022/03/26 11:11:35;;;;;;;22.88;19.40;;;;;;;;;;5051126;28;20077;-68
2022/03/26 11:14:02;;;;;;;21.45;18.52;;;;;;;;;;5050980;28;20048;-68
2022/03/26 11:16:34;;;;;;;22.35;18.58;;;;;;;;;;5041900;28;20123;-67
2022/03/26 11:19:19;;;;;;;23.90;18.23;;;;;;;;;;5030725;28;20088;-69
2022/03/26 11:21:53;;;;;;;22.48;17.65;;;;;;;;;;5030426;28;20095;-69
2022/03/26 11:24:42;;;;;;;23.83;17.73;;;;;;;;;;5030924;28;20418;-70
2022/03/26 11:27:18;;;;;;;24.63;18.55;;;;;;;;;;5030909;28;20119;-69
2022/03/26 11:30:00;;;;;;;20.00;17.07;;;;;;;;;;5045250;28;20103;-69
2022/03/26 11:32:29;;;;;;;23.27;17.83;;;;;;;;;;5042753;28;20060;-67
2022/03/26 11:34:59;;;;;;;21.13;17.20;;;;;;;;;;5038810;28;20042;-71
2022/03/26 11:37:26;;;;;;;19.20;16.80;;;;;;;;;;5030347;28;20037;-70
2022/03/26 11:39:52;;;;;;;17.48;15.48;;;;;;;;;;5030468;28;20045;-74
2022/03/26 11:42:23;;;;;;;19.85;13.73;;;;;;;;;;5030826;28;20045;-70
2022/03/26 11:50:42;;;;;;;14.55;9.93;;;;;;;;;;5050857;28;20045;-68
2022/03/26 11:53:27;;;;;;;12.65;9.27;;;;;;;;;;5034034;28;20049;-68
2022/03/26 11:55:53;;;;;;;14.87;8.87;;;;;;;;;;5029253;28;20100;-68
2022/03/26 11:58:27;;;;;;;;;;;;;;;;;;5031106;28;20469;-68
2022/03/26 12:01:00;;;;;;;11.55;7.78;;;;;;;;;;5033357;28;19921;-68
2022/03/26 12:03:30;;;;;;;11.43;6.70;;;;;;;;;;5037036;28;20049;-66
2022/03/26 12:08:48;;;;;;;10.57;5.63;;;;;;;;;;5051072;28;20041;-67
2022/03/26 12:11:15;;;;;;;11.45;4.63;;;;;;;;;;5039443;28;20052;-68
2022/03/26 12:13:58;;;;;;;9.05;4.35;;;;;;;;;;5054773;28;20366;-68
2022/03/26 12:16:45;;;;;;;9.75;4.65;;;;;;;;;;5054382;28;20447;-69
2022/03/26 12:19:32;;;;;;;9.63;4.55;;;;;;;;;;5053270;28;20055;-68
2022/03/26 12:21:58;;;;;;;10.57;4.95;;;;;;;;;;5054192;28;20087;-68
2022/03/26 12:24:25;;;;;;;;;;;;;;;;;;5054941;28;20049;-68
2022/03/26 12:26:51;;;;;;;;;;;;;;;;;;5053558;28;19924;-67
2022/03/26 12:29:18;;;;;;;5.90;4.03;;;;;;;;;;5054254;28;20323;-68
2022/03/26 12:31:49;;;;;;;8.75;4.50;;;;;;;;;;5053939;28;20091;-67
2022/03/26 12:34:16;;;;;;;10.30;4.90;;;;;;;;;;5054331;28;20408;-67
2022/03/26 12:36:42;;;;;;;8.23;4.75;;;;;;;;;;5054027;28;20122;-67
2022/03/26 12:39:10;;;;;;;10.52;4.70;;;;;;;;;;5033641;28;20045;-68
2022/03/26 12:41:37;;;;;;;10.35;5.00;;;;;;;;;;5033508;28;20075;-67
2022/03/26 12:44:03;;;;;;;8.57;4.75;;;;;;;;;;5033730;28;20049;-67
2022/03/26 12:46:30;;;;;;;;;;;;;;;;;;5053561;28;20408;-68
2022/03/26 12:48:57;;;;;;;7.82;5.32;;;;;;;;;;5053737;28;20011;-68
2022/03/26 12:51:23;;;;;;;;;;;;;;;;;;5053975;28;20053;-68
2022/03/26 12:53:49;;;;;;;11.18;5.00;;;;;;;;;;5055024;28;19929;-68
2022/03/26 12:56:16;;;;;;;7.75;4.63;;;;;;;;;;5049764;28;20107;-67
2022/03/26 12:58:58;;;;;;;7.75;5.25;;;;;;;;;;5033526;28;20045;-68
2022/03/26 13:01:26;;;;;;;8.45;4.75;;;;;;;;;;5031968;28;20049;-67
2022/03/26 13:03:53;;;;;;;7.68;4.93;;;;;;;;;;5032051;28;20062;-67
2022/03/26 13:06:19;;;;;;;;;;;;;;;;;;5037612;28;20394;-68
2022/03/26 13:08:52;;;;;;;7.95;5.65;;;;;;;;;;5053349;28;19974;-68
2022/03/26 13:11:20;;;;;;;7.85;5.85;;;;;;;;;;5052628;28;20138;-68
2022/03/26 13:13:48;;;;;;;8.10;5.78;;;;;;;;;;5053725;28;20106;-68
2022/03/26 13:16:16;;;;;;;7.70;4.80;;;;;;;;;;5053281;28;20107;-69
2022/03/26 13:18:45;;;;;;;9.35;4.40;;;;;;;;;;5052042;28;20492;-69
2022/03/26 13:21:13;;;;;;;7.15;4.70;;;;;;;;;;5053234;28;20090;-68
2022/03/26 13:23:49;;;;;;;6.40;5.07;;;;;;;;;;5051883;28;20642;-69
2022/03/26 13:26:16;;;;;;;7.35;4.25;;;;;;;;;;5053433;28;20118;-69
2022/03/26 13:28:43;;;;;;;7.68;4.30;;;;;;;;;;5035429;28;20053;-70
2022/03/26 13:31:09;;;;;;;;;;;;;;;;;;5052798;28;20154;-68
2022/03/26 13:33:35;;;;;;;7.47;4.38;;;;;;;;;;5051911;28;19966;-68
2022/03/26 13:36:05;;;;;;;10.93;5.10;;;;;;;;;;5049026;28;20053;-69
2022/03/26 13:38:41;;;;;;;8.35;5.00;;;;;;;;;;5036341;28;20045;-69
2022/03/26 13:41:20;;;;;;;6.13;4.38;;;;;;;;;;5040343;28;20045;-68
2022/03/26 13:43:47;;;;;;;11.20;4.90;;;;;;;;;;5041548;28;20046;-67
2022/03/26 13:46:14;;;;;;;7.03;4.50;;;;;;;;;;5048720;28;20044;-69
2022/03/26 13:48:48;;;;;;;6.68;4.38;;;;;;;;;;5038402;28;20115;-72
2022/03/26 13:51:14;;;;;;;10.10;5.10;;;;;;;;;;5039196;28;20504;-70
2022/03/26 13:53:44;;;;;;;11.18;5.70;;;;;;;;;;5052580;28;20049;-70
2022/03/26 13:56:10;;;;;;;11.18;4.95;;;;;;;;;;5052314;28;20037;-69
2022/03/26 13:58:37;;;;;;;7.72;4.78;;;;;;;;;;5034636;28;20095;-69
2022/03/26 14:01:07;;;;;;;10.25;5.40;;;;;;;;;;5032478;28;20096;-68
2022/03/26 14:03:35;;;;;;;10.98;5.07;;;;;;;;;;5044576;28;20049;-71
2022/03/26 14:06:01;;;;;;;7.65;5.22;;;;;;;;;;5030747;28;20567;-69
2022/03/26 14:08:28;;;;;;;12.52;6.22;;;;;;;;;;5031310;28;20564;-69
2022/03/26 14:10:55;;;;;;;;;;;;;;;;;;5050432;28;20102;-69
2022/03/26 14:13:22;;;;;;;13.15;5.43;;;;;;;;;;5037674;28;20368;-69
2022/03/26 14:15:49;;;;;;;10.60;6.00;;;;;;;;;;5052391;28;20194;-69
2022/03/26 14:18:18;;;;;;;7.43;5.45;;;;;;;;;;5050796;28;20095;-69
2022/03/26 14:20:45;;;;;;;10.20;5.28;;;;;;;;;;5052045;28;20098;-70
2022/03/26 14:23:12;;;;;;;11.98;5.30;;;;;;;;;;5051580;28;20390;-69
2022/03/26 14:25:39;;;;;;;8.75;5.10;;;;;;;;;;5051774;28;20562;-69
2022/03/26 14:28:06;;;;;;;11.57;8.20;;;;;;;;;;5052238;28;20048;-70
2022/03/26 14:30:33;;;;;;;14.20;11.18;;;;;;;;;;5052211;28;20066;-69
2022/03/26 14:33:02;;;;;;;9.68;7.82;;;;;;;;;;5051911;28;20057;-69
2022/03/26 14:35:29;;;;;;;9.55;7.55;;;;;;;;;;5051865;28;20103;-69
2022/03/26 14:37:57;;;;;;;;;;;;;;;;;;5051007;28;20072;-69
2022/03/26 14:40:24;;;;;;;10.75;8.10;;;;;;;;;;5051634;28;19921;-70
2022/03/26 14:42:50;;;;;;;9.65;7.40;;;;;;;;;;5051626;28;20048;-70